createdAt,value
2018-10-09T00:00:24.384Z,101952.67
2018-10-09T00:02:54.427Z,101945.17
2018-10-09T00:05:24.403Z,101935.80
2018-10-09T00:07:54.461Z,101934.05
2018-10-09T00:10:24.413Z,101930.99
2018-10-09T00:12:54.320Z,101928.44
2018-10-09T00:15:24.123Z,101918.91
2018-10-09T00:17:53.896Z,101918.14
2018-10-09T00:20:25.596Z,101913.89
2018-10-09T00:22:58.318Z,101914.42
2018-10-09T00:25:28.465Z,101914.42
2018-10-09T00:27:58.279Z,101919.52
2018-10-09T00:30:28.291Z,101914.21
2018-10-09T00:32:58.339Z,101915.08
2018-10-09T00:35:28.192Z,101923.01
2018-10-09T00:37:58.237Z,101929.06
2018-10-09T00:40:28.424Z,101930.62
2018-10-09T00:42:58.395Z,101922.39
2018-10-09T00:45:28.340Z,101927.21
2018-10-09T00:47:58.263Z,101926.44
2018-10-09T00:50:28.378Z,101920.85
2018-10-09T00:52:58.195Z,101921.53
2018-10-09T00:55:28.202Z,101921.42
2018-10-09T00:57:58.464Z,101918.36
2018-10-09T01:00:28.296Z,101923.00
2018-10-09T01:02:58.407Z,101924.34
2018-10-09T01:05:28.241Z,101933.74
2018-10-09T01:07:58.328Z,101932.68
2018-10-09T01:10:28.209Z,101931.30
2018-10-09T01:12:58.070Z,101932.88
2018-10-09T01:15:28.100Z,101929.14
2018-10-09T01:17:57.961Z,101928.48
2018-10-09T01:20:28.144Z,101932.05
2018-10-09T01:22:58.076Z,101933.00
2018-10-09T01:25:27.904Z,101941.11
2018-10-09T01:27:57.902Z,101940.80
2018-10-09T01:30:27.753Z,101946.95
2018-10-09T01:32:57.708Z,101947.12
2018-10-09T01:35:27.632Z,101949.45
2018-10-09T01:37:57.636Z,101950.19
2018-10-09T01:40:27.568Z,101947.48
2018-10-09T01:42:57.479Z,101953.81
2018-10-09T01:45:27.456Z,101955.81
2018-10-09T01:47:57.497Z,101957.77
2018-10-09T01:50:27.264Z,101967.42
2018-10-09T01:52:57.296Z,101969.27
2018-10-09T01:55:27.168Z,101969.12
2018-10-09T01:57:57.476Z,101967.47
2018-10-09T02:00:27.496Z,101963.09
2018-10-09T02:02:57.365Z,101963.90
2018-10-09T02:05:27.236Z,101944.63
2018-10-09T02:07:57.013Z,101948.17
2018-10-09T02:10:27.042Z,101936.78
2018-10-09T02:12:56.907Z,101938.75
2018-10-09T02:15:26.812Z,101935.03
2018-10-09T02:17:56.760Z,101930.55
2018-10-09T02:20:26.584Z,101929.22
2018-10-09T02:22:56.681Z,101922.03
2018-10-09T02:25:26.565Z,101928.19
2018-10-09T02:27:56.713Z,101918.58
2018-10-09T02:30:26.784Z,101917.05
2018-10-09T02:32:56.633Z,101913.06
2018-10-09T02:35:26.636Z,101906.17
2018-10-09T02:37:56.581Z,101902.12
2018-10-09T02:40:26.499Z,101899.97
2018-10-09T02:42:56.397Z,101896.84
2018-10-09T02:45:26.524Z,101900.02
2018-10-09T02:47:56.562Z,101898.17
2018-10-09T02:50:26.557Z,101889.41
2018-10-09T02:52:56.484Z,101896.61
2018-10-09T02:55:26.347Z,101902.48
2018-10-09T02:57:56.842Z,101897.63
2018-10-09T03:00:26.715Z,101889.91
2018-10-09T03:02:56.981Z,101883.74
2018-10-09T03:05:26.925Z,101890.72
2018-10-09T03:07:56.988Z,101895.52
2018-10-09T03:10:27.115Z,101888.33
2018-10-09T03:12:57.081Z,101886.75
2018-10-09T03:15:27.004Z,101876.91
2018-10-09T03:17:57.042Z,101874.02
2018-10-09T03:20:26.928Z,101876.42
2018-10-09T03:22:57.080Z,101873.69
2018-10-09T03:25:27.130Z,101879.20
2018-10-09T03:27:57.210Z,101886.40
2018-10-09T03:30:27.116Z,101871.23
2018-10-09T03:32:57.196Z,101875.14
2018-10-09T03:35:27.302Z,101875.92
2018-10-09T03:37:57.352Z,101878.83
2018-10-09T03:40:27.243Z,101878.27
2018-10-09T03:42:57.154Z,101888.22
2018-10-09T03:45:26.936Z,101877.34
2018-10-09T03:47:56.764Z,101875.22
2018-10-09T03:50:26.607Z,101873.89
2018-10-09T03:52:56.508Z,101873.13
2018-10-09T03:55:26.476Z,101880.32
2018-10-09T03:57:56.932Z,101879.14
2018-10-09T04:00:26.968Z,101878.11
2018-10-09T04:02:56.848Z,101876.03
2018-10-09T04:05:27.032Z,101869.14
2018-10-09T04:07:57.103Z,101881.17
2018-10-09T04:10:26.880Z,101871.03
2018-10-09T04:12:56.861Z,101868.89
2018-10-09T04:15:26.749Z,101867.30
2018-10-09T04:17:56.858Z,101874.21
2018-10-09T04:20:26.816Z,101876.91
2018-10-09T04:22:56.665Z,101880.32
2018-10-09T04:25:26.748Z,101874.76
2018-10-09T04:27:57.017Z,101880.78
2018-10-09T04:30:26.964Z,101882.81
2018-10-09T04:32:56.892Z,101880.82
2018-10-09T04:35:26.879Z,101878.41
2018-10-09T04:37:56.725Z,101883.45
2018-10-09T04:40:26.719Z,101877.97
2018-10-09T04:42:56.650Z,101877.74
2018-10-09T04:45:29.137Z,101884.68
2018-10-09T04:48:00.906Z,101874.33
2018-10-09T04:50:31.295Z,101874.30
2018-10-09T04:53:01.266Z,101871.72
2018-10-09T04:55:31.173Z,101877.05
2018-10-09T04:58:01.232Z,101879.88
2018-10-09T05:00:31.232Z,101884.54
2018-10-09T05:03:01.389Z,101883.52
2018-10-09T05:05:31.326Z,101882.42
2018-10-09T05:08:01.191Z,101885.42
2018-10-09T05:10:31.293Z,101885.25
2018-10-09T05:13:01.377Z,101890.54
2018-10-09T05:15:31.600Z,101890.41
2018-10-09T05:18:01.572Z,101894.73
2018-10-09T05:20:31.631Z,101889.36
2018-10-09T05:23:01.595Z,101902.56
2018-10-09T05:25:31.606Z,101905.43
2018-10-09T05:28:01.420Z,101907.09
2018-10-09T05:30:31.336Z,101908.44
2018-10-09T05:33:01.156Z,101899.06
2018-10-09T05:35:31.068Z,101905.05
2018-10-09T05:38:01.004Z,101902.39
2018-10-09T05:40:31.004Z,101907.03
2018-10-09T05:43:01.009Z,101920.20
2018-10-09T05:45:30.872Z,101922.75
2018-10-09T05:48:00.683Z,101931.73
2018-10-09T05:50:30.607Z,101930.14
2018-10-09T05:53:00.625Z,101931.55
2018-10-09T05:55:30.695Z,101938.27
2018-10-09T05:58:00.669Z,101937.29
2018-10-09T06:00:32.385Z,101933.06
2018-10-09T06:03:02.376Z,101939.45
2018-10-09T06:05:32.374Z,101940.33
2018-10-09T06:08:02.312Z,101946.23
2018-10-09T06:10:32.179Z,101944.41
2018-10-09T06:13:02.038Z,101948.69
2018-10-09T06:15:32.080Z,101947.70
2018-10-09T06:18:01.940Z,101947.27
2018-10-09T06:20:32.092Z,101945.25
2018-10-09T06:23:02.308Z,101946.97
2018-10-09T06:25:32.333Z,101941.16
2018-10-09T06:28:02.249Z,101945.46
2018-10-09T06:30:32.118Z,101947.42
2018-10-09T06:33:02.258Z,101938.45
2018-10-09T06:35:32.062Z,101941.74
2018-10-09T06:38:02.068Z,101935.47
2018-10-09T06:40:32.252Z,101934.77
2018-10-09T06:43:02.291Z,101939.13
2018-10-09T06:45:32.356Z,101940.30
2018-10-09T06:48:02.295Z,101941.95
2018-10-09T06:50:32.157Z,101943.88
2018-10-09T06:53:02.106Z,101943.28
2018-10-09T06:55:31.934Z,101945.17
2018-10-09T06:58:01.778Z,101951.05
2018-10-09T07:00:31.898Z,101955.14
2018-10-09T07:03:01.870Z,101954.75
2018-10-09T07:05:31.765Z,101958.02
2018-10-09T07:08:02.010Z,101965.09
2018-10-09T07:10:32.268Z,101970.34
2018-10-09T07:13:02.230Z,101972.87
2018-10-09T07:15:32.078Z,101982.33
2018-10-09T07:18:01.926Z,101985.77
2018-10-09T07:20:31.710Z,101986.80
2018-10-09T07:23:01.828Z,101990.76
2018-10-09T07:25:32.190Z,101998.53
2018-10-09T07:28:02.108Z,101998.84
2018-10-09T07:30:32.127Z,102000.89
2018-10-09T07:33:02.238Z,102001.67
2018-10-09T07:35:32.349Z,101997.94
2018-10-09T07:38:02.177Z,101999.87
2018-10-09T07:40:32.129Z,102001.80
2018-10-09T07:43:02.205Z,102009.62
2018-10-09T07:45:32.120Z,102010.21
2018-10-09T07:48:02.133Z,102016.17
2018-10-09T07:50:31.958Z,102017.32
2018-10-09T07:53:01.972Z,102011.09
2018-10-09T07:55:31.781Z,102016.34
2018-10-09T07:58:01.698Z,102017.73
2018-10-09T08:00:31.910Z,102023.66
2018-10-09T08:03:01.794Z,102023.19
2018-10-09T08:05:31.692Z,102017.08
2018-10-09T08:08:01.566Z,102024.86
2018-10-09T08:10:31.584Z,102028.62
2018-10-09T08:13:01.543Z,102025.42
2018-10-09T08:15:31.470Z,102019.31
2018-10-09T08:18:02.103Z,102021.18
2018-10-09T08:20:32.150Z,102026.52
2018-10-09T08:23:02.125Z,102015.04
2018-10-09T08:25:32.185Z,102015.31
2018-10-09T08:28:02.309Z,102018.00
2018-10-09T08:30:32.308Z,102018.77
2018-10-09T08:33:02.317Z,102018.77
2018-10-09T08:35:32.242Z,102025.42
2018-10-09T08:38:02.232Z,102006.15
2018-10-09T08:40:32.425Z,102008.80
2018-10-09T08:43:02.404Z,102012.77
2018-10-09T08:45:32.549Z,102014.09
2018-10-09T08:48:02.685Z,102014.61
2018-10-09T08:50:32.622Z,102018.59
2018-10-09T08:53:02.652Z,102013.20
2018-10-09T08:55:32.534Z,102016.19
2018-10-09T08:58:02.566Z,102014.01
2018-10-09T09:00:32.586Z,102019.06
2018-10-09T09:03:02.495Z,102017.14
2018-10-09T09:05:32.696Z,102021.75
2018-10-09T09:08:02.766Z,102021.21
2018-10-09T09:10:32.717Z,102020.15
2018-10-09T09:13:02.724Z,102020.17
2018-10-09T09:15:32.719Z,102024.20
2018-10-09T09:18:02.589Z,102026.34
2018-10-09T09:20:32.565Z,102033.02
2018-10-09T09:23:02.339Z,102032.75
2018-10-09T09:25:32.353Z,102028.42
2018-10-09T09:28:02.223Z,102030.27
2018-10-09T09:30:32.212Z,102025.66
2018-10-09T09:33:02.659Z,102026.72
2018-10-09T09:35:32.808Z,102035.03
2018-10-09T09:38:02.746Z,102026.72
2018-10-09T09:40:33.155Z,102028.24
2018-10-09T09:43:03.065Z,102026.55
2018-10-09T09:45:33.194Z,102022.09
2018-10-09T09:48:03.100Z,102030.33
2018-10-09T09:50:33.290Z,102017.11
2018-10-09T09:53:03.101Z,102023.30
2018-10-09T09:55:33.412Z,102018.75
2018-10-09T09:58:03.376Z,102013.95
2018-10-09T10:00:38.274Z,102012.16
2018-10-09T10:03:08.470Z,102014.89
2018-10-09T10:05:38.393Z,102015.22
2018-10-09T10:08:08.800Z,102017.97
2018-10-09T10:10:38.708Z,102018.33
2018-10-09T10:13:08.672Z,102015.65
2018-10-09T10:15:38.678Z,102016.27
2018-10-09T10:18:08.518Z,102013.88
2018-10-09T10:20:38.552Z,102012.59
2018-10-09T10:23:08.767Z,102002.96
2018-10-09T10:25:39.193Z,102013.66
2018-10-09T10:28:09.139Z,102013.31
2018-10-09T10:30:39.379Z,102017.80
2018-10-09T10:33:09.225Z,102012.12
2018-10-09T10:35:39.401Z,102011.27
2018-10-09T10:38:09.217Z,102009.32
2018-10-09T10:40:39.136Z,102008.52
2018-10-09T10:43:09.039Z,102010.38
2018-10-09T10:45:39.026Z,102007.34
2018-10-09T10:48:09.038Z,102012.41
2018-10-09T10:50:39.037Z,102005.59
2018-10-09T10:53:09.458Z,102006.11
2018-10-09T10:55:39.399Z,102001.83
2018-10-09T10:58:09.538Z,102000.14
2018-10-09T11:00:39.714Z,101993.95
2018-10-09T11:03:09.902Z,101995.59
2018-10-09T11:05:40.011Z,101993.44
2018-10-09T11:08:10.267Z,101996.58
2018-10-09T11:10:40.250Z,101996.14
2018-10-09T11:13:10.333Z,101992.05
2018-10-09T11:15:40.548Z,101987.62
2018-10-09T11:18:10.477Z,101983.52
2018-10-09T11:20:40.341Z,101984.22
2018-10-09T11:23:10.230Z,101980.65
2018-10-09T11:25:40.164Z,101985.89
2018-10-09T11:28:10.045Z,101974.77
2018-10-09T11:30:40.068Z,101967.34
2018-10-09T11:33:10.091Z,101964.83
2018-10-09T11:35:40.001Z,101964.95
2018-10-09T11:38:09.953Z,101961.68
2018-10-09T11:40:40.302Z,101959.30
2018-10-09T11:43:10.225Z,101954.56
2018-10-09T11:45:40.616Z,101948.93
2018-10-09T11:48:10.888Z,101946.06
2018-10-09T11:50:40.943Z,101946.45
2018-10-09T11:53:11.198Z,101943.39
2018-10-09T11:55:41.094Z,101948.38
2018-10-09T11:58:11.088Z,101940.88
2018-10-09T12:00:42.190Z,101937.25
2018-10-09T12:03:12.053Z,101932.53
2018-10-09T12:05:42.079Z,101922.68
2018-10-09T12:08:12.127Z,101922.88
2018-10-09T12:10:42.046Z,101916.80
2018-10-09T12:13:11.945Z,101910.95
2018-10-09T12:15:41.895Z,101908.92
2018-10-09T12:18:11.970Z,101903.17
2018-10-09T12:20:41.834Z,101901.84
2018-10-09T12:23:11.719Z,101901.85
2018-10-09T12:25:42.017Z,101905.28
2018-10-09T12:28:11.979Z,101902.64
2018-10-09T12:30:42.217Z,101907.02
2018-10-09T12:33:12.414Z,101902.53
2018-10-09T12:35:42.467Z,101901.42
2018-10-09T12:38:12.591Z,101893.25
2018-10-09T12:40:42.547Z,101889.80
2018-10-09T12:43:12.494Z,101884.76
2018-10-09T12:45:42.765Z,101881.69
2018-10-09T12:48:12.693Z,101890.01
2018-10-09T12:50:42.597Z,101887.59
2018-10-09T12:53:12.562Z,101887.19
2018-10-09T12:55:42.898Z,101887.58
2018-10-09T12:58:12.924Z,101880.53
2018-10-09T13:00:43.024Z,101874.13
2018-10-09T13:03:13.244Z,101872.08
2018-10-09T13:05:43.137Z,101869.47
2018-10-09T13:08:12.964Z,101874.08
2018-10-09T13:10:42.992Z,101873.90
2018-10-09T13:13:12.946Z,101870.09
2018-10-09T13:15:42.895Z,101865.59
2018-10-09T13:18:12.765Z,101867.04
2018-10-09T13:20:42.593Z,101865.17
2018-10-09T13:23:12.452Z,101862.84
2018-10-09T13:25:42.226Z,101865.70
2018-10-09T13:28:12.205Z,101863.66
2018-10-09T13:30:42.049Z,101861.38
2018-10-09T13:33:12.151Z,101862.00
2018-10-09T13:35:41.980Z,101855.16
2018-10-09T13:38:12.098Z,101859.63
2018-10-09T13:40:41.934Z,101851.17
2018-10-09T13:43:11.929Z,101847.00
2018-10-09T13:45:41.837Z,101848.20
2018-10-09T13:48:12.098Z,101851.20
2018-10-09T13:50:42.237Z,101849.81
2018-10-09T13:53:12.128Z,101846.19
2018-10-09T13:55:42.119Z,101847.31
2018-10-09T13:58:12.122Z,101847.94
2018-10-09T14:00:42.294Z,101847.87
2018-10-09T14:03:12.639Z,101846.78
2018-10-09T14:05:42.875Z,101844.80
2018-10-09T14:08:12.972Z,101844.97
2018-10-09T14:10:43.267Z,101847.67
2018-10-09T14:13:13.203Z,101836.50
2018-10-09T14:15:43.283Z,101842.05
2018-10-09T14:18:13.228Z,101843.87
2018-10-09T14:20:43.097Z,101846.73
2018-10-09T14:23:13.123Z,101839.32
2018-10-09T14:25:42.920Z,101835.19
2018-10-09T14:28:12.993Z,101835.25
2018-10-09T14:30:42.906Z,101837.23
2018-10-09T14:33:12.793Z,101831.81
2018-10-09T14:35:42.706Z,101825.75
2018-10-09T14:38:12.722Z,101822.33
2018-10-09T14:40:42.712Z,101823.59
2018-10-09T14:43:12.572Z,101834.77
2018-10-09T14:45:42.374Z,101827.22
2018-10-09T14:48:12.385Z,101821.70
2018-10-09T14:50:42.282Z,101820.55
2018-10-09T14:53:12.464Z,101819.05
2018-10-09T14:55:42.343Z,101820.86
2018-10-09T14:58:12.243Z,101818.08
2018-10-09T15:00:42.134Z,101825.77
2018-10-09T15:03:12.222Z,101824.23
2018-10-09T15:05:42.164Z,101828.34
2018-10-09T15:08:12.326Z,101827.08
2018-10-09T15:10:42.387Z,101825.47
2018-10-09T15:13:12.255Z,101827.44
2018-10-09T15:15:42.216Z,101832.16
2018-10-09T15:18:12.112Z,101832.89
2018-10-09T15:20:42.165Z,101833.02
2018-10-09T15:23:12.307Z,101830.46
2018-10-09T15:25:42.671Z,101827.89
2018-10-09T15:28:12.848Z,101828.52
2018-10-09T15:30:42.761Z,101826.45
2018-10-09T15:33:12.668Z,101826.58
2018-10-09T15:35:42.673Z,101821.05
2018-10-09T15:38:12.844Z,101835.65
2018-10-09T15:40:43.067Z,101829.52
2018-10-09T15:43:13.509Z,101828.30
2018-10-09T15:45:43.561Z,101828.97
2018-10-09T15:48:13.600Z,101829.38
2018-10-09T15:50:44.148Z,101834.89
2018-10-09T15:53:14.223Z,101832.86
2018-10-09T15:55:44.353Z,101833.21
2018-10-09T15:58:14.637Z,101835.48
2018-10-09T16:00:45.099Z,101832.41
2018-10-09T16:03:15.444Z,101832.29
2018-10-09T16:05:45.460Z,101833.98
2018-10-09T16:08:15.754Z,101827.80
2018-10-09T16:10:45.840Z,101826.02
2018-10-09T16:13:15.811Z,101830.91
2018-10-09T16:15:45.787Z,101833.79
2018-10-09T16:18:15.935Z,101829.37
2018-10-09T16:23:14.942Z,101820.37
2018-10-09T16:28:18.035Z,101830.66
2018-10-09T16:30:47.913Z,101827.83
2018-10-09T16:33:18.164Z,101832.27
2018-10-09T16:35:48.496Z,101832.10
2018-10-09T16:38:18.671Z,101837.34
2018-10-09T16:40:48.728Z,101832.06
2018-10-09T16:43:18.790Z,101843.99
2018-10-09T16:45:48.841Z,101836.08
2018-10-09T16:48:18.820Z,101837.81
2018-10-09T16:50:48.730Z,101833.91
2018-10-09T16:53:18.624Z,101840.75
2018-10-09T16:55:48.870Z,101837.66
2018-10-09T16:58:18.908Z,101835.90
2018-10-09T17:00:48.857Z,101839.51
2018-10-09T17:03:18.822Z,101838.25
2018-10-09T17:05:48.830Z,101840.98
2018-10-09T17:08:19.137Z,101844.30
2018-10-09T17:10:49.463Z,101837.95
2018-10-09T17:13:19.492Z,101839.53
2018-10-09T17:15:49.546Z,101843.34
2018-10-09T17:18:19.400Z,101848.38
2018-10-09T17:20:49.665Z,101848.27
2018-10-09T17:23:19.793Z,101852.15
2018-10-09T17:25:49.943Z,101851.71
2018-10-09T17:28:19.880Z,101846.47
2018-10-09T17:30:49.744Z,101851.91
2018-10-09T17:33:19.865Z,101851.98
2018-10-09T17:35:49.701Z,101853.39
2018-10-09T17:38:19.668Z,101854.80
2018-10-09T17:40:49.548Z,101866.92
2018-10-09T17:43:19.496Z,101860.86
2018-10-09T17:45:49.426Z,101870.83
2018-10-09T17:48:19.441Z,101868.16
2018-10-09T17:50:49.438Z,101875.21
2018-10-09T17:53:19.622Z,101868.80
2018-10-09T17:55:49.751Z,101870.71
2018-10-09T17:58:19.769Z,101865.07
2018-10-09T18:00:49.913Z,101871.53
2018-10-09T18:03:19.949Z,101872.94
2018-10-09T18:05:49.963Z,101873.00
2018-10-09T18:08:20.127Z,101872.50
2018-10-09T18:10:50.517Z,101871.50
2018-10-09T18:13:20.539Z,101868.06
2018-10-09T18:15:51.009Z,101874.67
2018-10-09T18:18:21.111Z,101872.14
2018-10-09T18:20:51.257Z,101870.23
2018-10-09T18:23:21.430Z,101875.70
2018-10-09T18:25:51.432Z,101871.73
2018-10-09T18:28:21.320Z,101875.80
2018-10-09T18:30:51.277Z,101879.58
2018-10-09T18:33:21.399Z,101881.74
2018-10-09T18:35:51.294Z,101882.31
2018-10-09T18:38:21.318Z,101877.24
2018-10-09T18:40:51.450Z,101874.84
2018-10-09T18:43:21.732Z,101878.38
2018-10-09T18:45:51.764Z,101877.34
2018-10-09T18:48:21.830Z,101877.37
2018-10-09T18:50:51.883Z,101869.62
2018-10-09T18:53:21.866Z,101866.17
2018-10-09T18:55:52.681Z,101870.20
2018-10-09T18:58:23.161Z,101869.42
2018-10-09T19:00:53.385Z,101870.72
2018-10-09T19:03:23.520Z,101870.27
2018-10-09T19:05:53.573Z,101870.31
2018-10-09T19:08:23.629Z,101873.31
2018-10-09T19:10:53.698Z,101878.43
2018-10-09T19:13:23.493Z,101878.18
2018-10-09T19:15:53.382Z,101868.00
2018-10-09T19:18:23.868Z,101872.83
2018-10-09T19:20:53.780Z,101869.62
2018-10-09T19:23:24.000Z,101873.67
2018-10-09T19:25:54.250Z,101879.31
2018-10-09T19:28:24.319Z,101877.69
2018-10-09T19:30:54.745Z,101883.89
2018-10-09T19:33:25.295Z,101883.64
2018-10-09T19:35:55.315Z,101882.05
2018-10-09T19:38:25.715Z,101878.04
2018-10-09T19:40:57.027Z,101882.58
2018-10-09T19:43:27.209Z,101880.47
2018-10-09T19:45:57.296Z,101883.67
2018-10-09T19:48:27.658Z,101881.00
2018-10-09T19:50:57.882Z,101881.00
2018-10-09T19:53:28.151Z,101884.52
2018-10-09T19:55:58.150Z,101888.28
2018-10-09T19:58:28.316Z,101884.82
2018-10-09T20:00:58.539Z,101885.38
2018-10-09T20:03:28.693Z,101889.67
2018-10-09T20:05:58.651Z,101889.69
2018-10-09T20:08:28.913Z,101887.83
2018-10-09T20:10:58.919Z,101887.31
2018-10-09T20:13:28.860Z,101883.05
2018-10-09T20:15:58.990Z,101886.81
2018-10-09T20:18:28.883Z,101889.98
2018-10-09T20:20:58.867Z,101889.99
2018-10-09T20:23:29.048Z,101889.20
2018-10-09T20:25:59.142Z,101889.48
2018-10-09T20:28:29.137Z,101886.02
2018-10-09T20:30:59.754Z,101888.70
2018-10-09T20:33:30.034Z,101894.33
2018-10-09T20:36:00.292Z,101892.44
2018-10-09T20:38:30.400Z,101890.84
2018-10-09T20:41:00.530Z,101889.50
2018-10-09T20:43:30.493Z,101885.48
2018-10-09T20:46:00.454Z,101896.47
2018-10-09T20:48:30.634Z,101889.00
2018-10-09T20:51:00.590Z,101891.95
2018-10-09T20:53:30.614Z,101893.00
2018-10-09T20:56:00.588Z,101891.94
2018-10-09T20:58:30.893Z,101894.62
2018-10-09T21:01:00.932Z,101896.50
2018-10-09T21:03:30.814Z,101897.06
2018-10-09T21:06:01.025Z,101893.56
2018-10-09T21:08:31.191Z,101894.66
2018-10-09T21:11:01.492Z,101890.91
2018-10-09T21:13:31.761Z,101890.39
2018-10-09T21:16:02.201Z,101886.67
2018-10-09T21:18:32.263Z,101887.73
2018-10-09T21:21:02.276Z,101895.50
2018-10-09T21:23:32.338Z,101890.44
2018-10-09T21:26:02.370Z,101888.02
2018-10-09T21:28:32.392Z,101888.30
2018-10-09T21:31:02.246Z,101888.30
2018-10-09T21:33:32.125Z,101886.15
2018-10-09T21:36:02.058Z,101886.67
2018-10-09T21:38:32.022Z,101886.15
2018-10-09T21:41:01.924Z,101887.48
2018-10-09T21:43:32.024Z,101889.91
2018-10-09T21:46:02.259Z,101884.55
2018-10-09T21:48:32.100Z,101889.36
2018-10-09T21:51:02.052Z,101890.16
2018-10-09T21:53:32.079Z,101884.56
2018-10-09T21:56:02.058Z,101885.37
2018-10-09T21:58:32.142Z,101885.90
2018-10-09T22:01:12.041Z,101881.89
2018-10-09T22:03:42.697Z,101882.14
2018-10-09T22:06:12.812Z,101877.89
2018-10-09T22:08:42.992Z,101878.66
2018-10-09T22:11:12.997Z,101880.80
2018-10-09T22:13:43.049Z,101874.39
2018-10-09T22:16:13.237Z,101879.22
2018-10-09T22:18:43.132Z,101870.39
2018-10-09T22:21:12.953Z,101881.34
2018-10-09T22:23:43.013Z,101868.52
2018-10-09T22:26:12.985Z,101876.27
2018-10-09T22:28:42.933Z,101871.20
2018-10-09T22:31:12.999Z,101870.66
2018-10-09T22:33:43.024Z,101871.47
2018-10-09T22:36:13.049Z,101866.95
2018-10-09T22:38:42.886Z,101869.88
2018-10-09T22:41:12.991Z,101859.18
2018-10-09T22:43:42.847Z,101860.52
2018-10-09T22:46:12.896Z,101860.51
2018-10-09T22:48:42.808Z,101862.92
2018-10-09T22:51:12.603Z,101865.08
2018-10-09T22:53:42.468Z,101860.25
2018-10-09T22:56:12.577Z,101859.73
2018-10-09T22:58:42.630Z,101861.34
2018-10-09T23:01:12.442Z,101860.78
2018-10-09T23:03:42.400Z,101860.53
2018-10-09T23:06:12.488Z,101857.86
2018-10-09T23:08:42.313Z,101859.72
2018-10-09T23:11:12.353Z,101866.69
2018-10-09T23:13:42.345Z,101866.94
2018-10-09T23:16:12.161Z,101870.14
2018-10-09T23:18:42.304Z,101868.55
2018-10-09T23:21:12.185Z,101865.59
2018-10-09T23:23:42.133Z,101865.34
2018-10-09T23:26:12.244Z,101864.80
2018-10-09T23:28:42.258Z,101872.53
2018-10-09T23:31:12.056Z,101872.00
2018-10-09T23:33:42.152Z,101863.46
2018-10-09T23:36:12.082Z,101868.25
2018-10-09T23:38:42.237Z,101870.40
2018-10-09T23:41:12.036Z,101870.66
2018-10-09T23:43:42.394Z,101867.98
2018-10-09T23:46:12.364Z,101861.06
2018-10-09T23:48:42.225Z,101863.72
2018-10-09T23:51:12.197Z,101859.98
2018-10-09T23:53:42.102Z,101864.52
2018-10-09T23:56:12.022Z,101864.25
2018-10-09T23:58:41.812Z,101859.70
